Portada
METAR-TAF:

METAR-TAF

Aeroports :

New Bedford, Massachusetts, Estats Units d'Amèrica

latitud: 41-40-31N, longitud: 070-57-25W, altitud: 24 m

Observació

L'informe es va fer fa 21 minuts, a les 19:53 UTC
Vent 12 kt del Sud-Oest amb ràfegues de 21 kt
Temperatura 10°C
Humitat 40%
Pressió 1013 hPa
Visibilitat: 16.1 km
Cel clar

METAR: KEWB 241953Z 23012G21KT 10SM CLR 10/M03 A2991 RMK AO2 SLP129 T01001028

Hora: 15:14 (20:14 UTC)


TAF: manca

Observacions i pronòstics meteorològics de més de 4000 aeroports (METAR i TAF).

Les estacions disponibles són els punts grocs i vermells al mapa.

Posi el ratolí al punt desitjat per veure el nom de l'estació.

Feu clic per veure les observacions i els pronòstics meteorològics.

Per canviar el mapa: feu clic els botons verds amb una creu de color negre per apropar; al botó verd amb un guió per allunyar la imatge; o en les fletxes verdes per a mapes adjacents.


METAR-TAF: